ESMXEKRN

Guest
Details From ESMX - Vaxjo Kronoberg
To EKRN - Bornholm Ronne
Flight Number -
Tags decoded
Created
Modified
Stats Distance 135 nm / 251 km
Max Altitude 0 ft / 0 m
Waypoints 3
Social Downloads 0
Likes 0
Share VATSIM

Download

Looking for another format? Having issues loading an existing format? Contact us
Advertisement - Login to hide

Notes

Requested: ESMX GOTOG ULLRED EKRN Unmatched points: ULLRED

Route

ESMX GOTOG EKRN

ID Type Via Altitude Latitude Longitude Leg Dist Tot Dist Heading (true) Name
O ESMX APT - 0 ft / 0 m 56.92914˚ 14.72799˚ - 0 nm - Vaxjo Kronoberg
GOTOG FIX - 0 ft / 0 m 54.90686˚ 15.03868˚ 121 nm 121 nm 175° / 175° -
O EKRN APT - 0 ft / 0 m 55.06327˚ 14.75956˚ 13 nm 135 nm 314° / 314° Bornholm Ronne

Altitude Profile

Advertisement - Login to hide

ESMX

Details ICAO ESMX (VXO)
Name Vaxjo Kronoberg
Region Sweden
Timezone Europe/Stockholm (UTC+1.0)
Stats Elevation 610 ft / 186 m (AMSL)
Location 56.929144° 14.727993°
Runways 1
Magnetic Variation 4.544° E

METAR

ESMX 130720Z 20013KT 9999 OVC009 01/M00 Q1001

Decode

TAF

Not found

Departure Runways

ID Width Length Bearing (true) Bearing (mag) Surface Threshold Offset Overrun Length
01 148 ft / 45 m 6,894 ft / 2,101 m 13.03° 8.49° Asphalt 0 ft / 0 m 0 ft / 0 m
19 148 ft / 45 m 6,894 ft / 2,101 m 193.04° 188.50° Asphalt 0 ft / 0 m 0 ft / 0 m

EKRN

Details ICAO EKRN (RNN)
Name Bornholm Ronne
Region Denmark / Faroe Islands
Timezone Europe/Copenhagen (UTC+1.0)
Stats Elevation 52 ft / 16 m (AMSL)
Location 55.063265° 14.759558°
Runways 1
Magnetic Variation 4.382° E

METAR

EKRN 130720Z AUTO 23016KT 9999NDV OVC019/// 03/M01 Q1009

Decode

TAF

Not found

Destination Runways

ID Width Length Bearing (true) Bearing (mag) Surface Threshold Offset Overrun Length
11 164 ft / 50 m 6,551 ft / 1,997 m 113.76° 109.38° Asphalt 0 ft / 0 m 197 ft / 60 m
29 164 ft / 50 m 6,551 ft / 1,997 m 293.78° 289.40° Asphalt 0 ft / 0 m 0 ft / 0 m

Approach Navaids

Runway Type Ident Frequency Range Bearing (true) Bearing (mag) Slope Elevation
11 Localiser IAR 109.35 MHz 18 nm / 33 km 113.78° 109.40° - 52 ft / 16 m (AMSL)
11 Glidescope IAR 109.35 MHz 10 nm / 19 km 113.77° 109.39° 3.00° 52 ft / 16 m (AMSL)
11 DME IAR 109.35 MHz 18 nm / 33 km - - - 52 ft / 16 m (AMSL)
29 Localiser IRE 110.30 MHz 18 nm / 33 km 295.54° 291.16° - 52 ft / 16 m (AMSL)
29 Glidescope IRE 110.30 MHz 10 nm / 19 km 293.77° 289.39° 3.00° 52 ft / 16 m (AMSL)
29 DME IRE 110.30 MHz 18 nm / 33 km - - - 55 ft / 17 m (AMSL)

Popular Alternatives